createdAt,value
2023-04-29T00:00:54.765Z,65.97
2023-04-29T00:05:56.414Z,66.32
2023-04-29T00:10:58.001Z,65.41
2023-04-29T00:15:59.481Z,66.56
2023-04-29T00:21:00.926Z,65.45
2023-04-29T00:26:02.720Z,66.47
2023-04-29T00:31:04.222Z,65.67
2023-04-29T00:36:05.817Z,65.27
2023-04-29T00:41:07.359Z,65.43
2023-04-29T00:46:09.896Z,65.48
2023-04-29T00:51:11.692Z,65.80
2023-04-29T00:56:14.985Z,65.98
2023-04-29T01:01:17.251Z,66.16
2023-04-29T01:06:59.258Z,66.11
2023-04-29T01:12:16.317Z,66.47
2023-04-29T01:17:23.764Z,66.46
2023-04-29T01:22:25.801Z,66.65
2023-04-29T01:27:35.854Z,66.63
2023-04-29T01:32:54.154Z,66.69
2023-04-29T01:38:13.983Z,66.58
2023-04-29T01:43:16.030Z,66.87
2023-04-29T01:48:18.245Z,67.04
2023-04-29T01:53:19.753Z,67.29
2023-04-29T01:58:21.228Z,67.80
2023-04-29T02:03:22.895Z,67.96
2023-04-29T02:08:24.569Z,68.12
2023-04-29T02:13:26.752Z,68.65
2023-04-29T02:18:28.221Z,68.49
2023-04-29T02:23:30.290Z,68.42
2023-04-29T02:28:32.328Z,68.36
2023-04-29T02:33:34.057Z,68.36
2023-04-29T02:38:35.465Z,69.45
2023-04-29T02:43:36.884Z,68.81
2023-04-29T02:48:38.455Z,68.70
2023-04-29T02:53:40.086Z,69.03
2023-04-29T02:58:42.310Z,69.64
2023-04-29T03:03:43.869Z,68.96
2023-04-29T03:08:45.612Z,68.64
2023-04-29T03:13:47.550Z,68.67
2023-04-29T03:18:49.662Z,68.80
2023-04-29T03:23:51.117Z,68.84
2023-04-29T03:28:52.597Z,69.01
2023-04-29T03:33:54.081Z,68.93
2023-04-29T03:38:55.550Z,69.54
2023-04-29T03:44:00.720Z,69.54
2023-04-29T03:49:02.273Z,70.66
2023-04-29T03:54:03.799Z,71.81
2023-04-29T03:59:05.320Z,70.88
2023-04-29T04:04:06.989Z,71.02
2023-04-29T04:09:08.584Z,71.98
2023-04-29T04:14:10.402Z,72.71
2023-04-29T04:19:11.810Z,71.93
2023-04-29T04:24:13.241Z,71.90
2023-04-29T04:29:14.802Z,71.99
2023-04-29T04:34:16.213Z,72.01
2023-04-29T04:39:17.618Z,72.12
2023-04-29T04:44:19.027Z,71.76
2023-04-29T04:49:20.601Z,72.73
2023-04-29T04:54:22.024Z,72.04
2023-04-29T04:59:23.502Z,71.22
2023-04-29T05:04:25.216Z,71.04
2023-04-29T05:09:26.943Z,71.02
2023-04-29T05:14:28.622Z,70.82
2023-04-29T05:19:30.073Z,71.02
2023-04-29T05:24:31.699Z,71.98
2023-04-29T05:29:33.112Z,71.69
2023-04-29T05:34:34.529Z,71.14
2023-04-29T05:39:35.979Z,71.09
2023-04-29T05:44:37.448Z,71.66
2023-04-29T05:49:39.383Z,72.45
2023-04-29T05:54:41.588Z,72.29
2023-04-29T05:59:43.044Z,71.81
2023-04-29T06:04:44.607Z,71.30
2023-04-29T06:09:46.207Z,70.68
2023-04-29T06:14:47.638Z,70.41
2023-04-29T06:19:49.054Z,69.48
2023-04-29T06:24:50.469Z,69.55
2023-04-29T06:29:52.123Z,70.46
2023-04-29T06:34:53.664Z,70.00
2023-04-29T06:39:55.272Z,74.92
2023-04-29T06:44:56.789Z,72.80
2023-04-29T06:49:58.207Z,74.93
2023-04-29T06:55:00.027Z,73.49
2023-04-29T07:00:01.564Z,73.87
2023-04-29T07:05:03.041Z,73.83
2023-04-29T07:10:04.891Z,73.96
2023-04-29T07:15:06.941Z,74.02
2023-04-29T07:20:08.972Z,74.61
2023-04-29T07:25:11.143Z,75.94
2023-04-29T07:30:12.909Z,75.53
2023-04-29T07:35:14.474Z,75.99
2023-04-29T07:40:15.947Z,76.36
2023-04-29T07:45:17.566Z,76.66
2023-04-29T07:50:19.006Z,77.39
2023-04-29T07:55:20.496Z,77.89
2023-04-29T08:00:22.654Z,78.63
2023-04-29T08:05:24.646Z,79.15
2023-04-29T08:10:27.284Z,79.54
2023-04-29T08:15:28.728Z,79.90
2023-04-29T08:20:30.486Z,79.61
2023-04-29T08:25:31.892Z,79.57
2023-04-29T08:30:33.824Z,79.99
2023-04-29T08:35:37.673Z,79.34
2023-04-29T08:40:44.127Z,80.06
2023-04-29T08:45:48.529Z,80.50
2023-04-29T08:50:49.971Z,81.69
2023-04-29T08:55:53.334Z,81.93
2023-04-29T09:00:54.858Z,82.21
2023-04-29T09:06:00.755Z,82.63
2023-04-29T09:11:02.392Z,83.38
2023-04-29T09:16:04.229Z,86.75
2023-04-29T09:21:15.758Z,84.34
2023-04-29T09:26:17.472Z,85.35
2023-04-29T09:31:27.818Z,83.76
2023-04-29T09:36:48.511Z,85.31
2023-04-29T09:41:52.944Z,83.65
2023-04-29T09:47:04.639Z,83.34
2023-04-29T09:52:14.377Z,83.02
2023-04-29T09:57:15.931Z,81.77
2023-04-29T10:02:18.850Z,81.53
2023-04-29T10:07:21.532Z,80.73
2023-04-29T10:12:26.303Z,80.27
2023-04-29T10:18:09.450Z,79.93
2023-04-29T10:23:11.244Z,79.34
2023-04-29T10:28:16.720Z,77.08
2023-04-29T10:33:19.246Z,76.34
2023-04-29T10:38:29.677Z,73.53
2023-04-29T10:43:31.968Z,69.39
2023-04-29T10:48:33.442Z,69.80
2023-04-29T10:53:35.681Z,70.33
2023-04-29T10:58:39.408Z,69.84
2023-04-29T11:03:50.860Z,69.37
2023-04-29T11:09:03.724Z,69.17
2023-04-29T11:14:05.432Z,68.47
2023-04-29T11:19:08.463Z,67.34
2023-04-29T11:24:09.918Z,67.67
2023-04-29T11:29:11.494Z,67.59
2023-04-29T11:34:13.002Z,66.87
2023-04-29T11:39:16.913Z,66.44
2023-04-29T11:44:22.624Z,62.86
2023-04-29T11:49:30.486Z,64.36
2023-04-29T11:54:32.678Z,60.47
2023-04-29T11:59:34.143Z,60.62
2023-04-29T12:04:45.491Z,61.02
2023-04-29T12:09:47.342Z,61.48
2023-04-29T12:14:49.687Z,63.97
2023-04-29T12:19:51.323Z,64.24
2023-04-29T12:24:54.485Z,64.13
2023-04-29T12:29:57.445Z,68.70
2023-04-29T12:34:58.906Z,68.68
2023-04-29T12:40:00.371Z,74.35
2023-04-29T12:45:01.943Z,73.05
2023-04-29T12:50:03.729Z,72.64
2023-04-29T12:55:06.544Z,71.05
2023-04-29T13:00:08.672Z,68.55
2023-04-29T13:05:12.775Z,67.75
2023-04-29T13:10:14.393Z,64.41
2023-04-29T13:15:15.909Z,65.39
2023-04-29T13:20:17.457Z,64.03
2023-04-29T13:25:18.983Z,63.50
2023-04-29T13:30:20.455Z,62.88
2023-04-29T13:35:21.922Z,64.00
2023-04-29T13:40:27.482Z,62.84
2023-04-29T13:45:29.561Z,64.01
2023-04-29T14:01:10.430Z,64.63
2023-04-29T14:06:01.304Z,64.81
2023-04-29T14:11:02.736Z,64.76
2023-04-29T14:16:06.625Z,63.68
2023-04-29T14:21:08.195Z,64.33
2023-04-29T14:26:26.573Z,64.95
2023-04-29T14:31:31.423Z,64.06
2023-04-29T14:36:33.126Z,63.34
2023-04-29T14:41:34.578Z,62.53
2023-04-29T14:46:36.067Z,62.78
2023-04-29T14:51:37.499Z,63.17
2023-04-29T14:56:38.925Z,63.04
2023-04-29T15:01:40.538Z,64.60
2023-04-29T15:06:42.053Z,65.22
2023-04-29T15:11:43.573Z,72.00
2023-04-29T15:16:45.078Z,74.19
2023-04-29T15:21:46.557Z,75.94
2023-04-29T15:26:48.342Z,79.25
2023-04-29T15:31:49.878Z,76.51
2023-04-29T15:36:51.445Z,75.96
2023-04-29T15:41:53.904Z,75.34
2023-04-29T15:46:55.366Z,76.94
2023-04-29T15:51:56.822Z,76.90
2023-04-29T15:56:58.236Z,80.87
2023-04-29T16:01:59.694Z,79.85
2023-04-29T16:07:01.582Z,81.85
2023-04-29T16:12:03.174Z,82.04
2023-04-29T16:17:05.681Z,83.98
2023-04-29T16:22:07.429Z,86.29
2023-04-29T16:27:08.851Z,86.07
2023-04-29T16:32:10.271Z,88.54
2023-04-29T16:37:12.676Z,89.22
2023-04-29T16:42:14.282Z,89.31
2023-04-29T16:47:15.772Z,88.47
2023-04-29T16:52:17.742Z,88.60
2023-04-29T16:57:19.268Z,87.79
2023-04-29T17:02:21.097Z,87.61
2023-04-29T17:07:22.701Z,88.85
2023-04-29T17:12:24.120Z,88.80
2023-04-29T17:17:25.626Z,85.99
2023-04-29T17:22:27.086Z,84.65
2023-04-29T17:27:28.502Z,86.13
2023-04-29T17:32:30.150Z,86.14
2023-04-29T17:37:31.610Z,85.75
2023-04-29T17:42:33.069Z,85.76
2023-04-29T17:47:35.458Z,84.95
2023-04-29T17:52:37.049Z,86.91
2023-04-29T17:57:40.235Z,85.79
2023-04-29T18:02:42.228Z,85.32
2023-04-29T18:07:43.671Z,85.58
2023-04-29T18:12:45.087Z,84.56
2023-04-29T18:17:46.542Z,86.60
2023-04-29T18:22:48.761Z,89.25
2023-04-29T18:27:51.473Z,87.40
2023-04-29T18:32:53.054Z,85.55
2023-04-29T18:37:54.797Z,85.99
2023-04-29T18:42:56.197Z,84.34
2023-04-29T18:47:57.652Z,86.04
2023-04-29T18:52:59.117Z,86.29
2023-04-29T18:58:00.622Z,87.80
2023-04-29T19:03:02.106Z,89.76
2023-04-29T19:08:03.666Z,89.22
2023-04-29T19:13:05.108Z,87.32
2023-04-29T19:18:07.061Z,89.08
2023-04-29T19:23:08.569Z,89.85
2023-04-29T19:28:10.154Z,90.76
2023-04-29T19:33:11.604Z,89.39
2023-04-29T19:38:13.050Z,89.28
2023-04-29T19:43:14.545Z,87.77
2023-04-29T19:48:16.371Z,87.51
2023-04-29T19:53:18.005Z,90.32
2023-04-29T19:58:19.846Z,89.83
2023-04-29T20:03:21.701Z,88.25
2023-04-29T20:08:23.134Z,88.56
2023-04-29T20:13:24.609Z,88.86
2023-04-29T20:18:26.367Z,89.33
2023-04-29T20:23:27.776Z,88.83
2023-04-29T20:28:29.274Z,88.99
2023-04-29T20:33:30.912Z,88.67
2023-04-29T20:38:36.166Z,88.01
2023-04-29T20:43:37.728Z,87.84
2023-04-29T20:48:39.168Z,87.19
2023-04-29T20:53:40.691Z,87.91
2023-04-29T20:58:42.118Z,88.21
2023-04-29T21:03:43.522Z,86.15
2023-04-29T21:08:45.035Z,85.89
2023-04-29T21:13:50.108Z,85.08
2023-04-29T21:18:51.574Z,85.67
2023-04-29T21:23:52.996Z,85.67
2023-04-29T21:28:54.734Z,86.17
2023-04-29T21:33:56.167Z,84.52
2023-04-29T21:38:57.647Z,83.50
2023-04-29T21:44:00.941Z,83.73
2023-04-29T21:49:03.979Z,83.44
2023-04-29T21:54:08.427Z,84.51
2023-04-29T21:59:09.971Z,83.48
2023-04-29T22:04:11.665Z,82.52
2023-04-29T22:09:13.098Z,82.70
2023-04-29T22:14:14.532Z,80.80
2023-04-29T22:19:15.978Z,80.57
2023-04-29T22:24:17.427Z,79.26
2023-04-29T22:29:20.070Z,79.00
2023-04-29T22:34:21.484Z,76.74
2023-04-29T22:39:22.972Z,76.09
2023-04-29T22:44:24.475Z,74.67
2023-04-29T22:49:26.011Z,74.07
2023-04-29T22:54:28.765Z,73.77
2023-04-29T22:59:30.178Z,72.88
2023-04-29T23:04:33.306Z,72.32
2023-04-29T23:09:34.771Z,72.91
2023-04-29T23:14:36.176Z,72.52
2023-04-29T23:19:37.670Z,72.64
2023-04-29T23:24:40.196Z,72.68
2023-04-29T23:29:41.759Z,72.58
2023-04-29T23:34:43.232Z,72.83
2023-04-29T23:39:44.707Z,72.64
2023-04-29T23:44:46.181Z,73.34
2023-04-29T23:49:47.623Z,73.85
2023-04-29T23:54:49.185Z,72.50
2023-04-29T23:59:50.710Z,72.68
